createdAt,value
2018-09-11T00:02:03.869Z,52.13
2018-09-11T00:04:45.823Z,52.00
2018-09-11T00:07:20.884Z,51.70
2018-09-11T00:09:53.971Z,52.43
2018-09-11T00:12:38.399Z,51.90
2018-09-11T00:15:21.314Z,52.54
2018-09-11T00:18:07.489Z,51.95
2018-09-11T00:20:44.805Z,52.59
2018-09-11T00:23:18.595Z,52.70
2018-09-11T00:26:01.364Z,52.40
2018-09-11T02:21:48.243Z,56.80
2018-09-11T02:24:21.717Z,56.45
2018-09-11T02:26:58.404Z,56.16
2018-09-11T02:29:36.773Z,56.20
2018-09-11T02:32:11.942Z,56.24
2018-09-11T02:34:45.129Z,56.26
2018-09-11T02:39:52.480Z,56.91
2018-09-11T02:42:39.977Z,56.98
2018-09-11T02:45:16.866Z,57.24
2018-09-11T02:47:51.614Z,57.92
2018-09-11T02:50:34.331Z,57.23
2018-09-11T02:53:08.630Z,57.42
2018-09-11T02:58:20.988Z,57.64
2018-09-11T03:01:04.030Z,57.77
2018-09-11T03:03:34.702Z,58.37
2018-09-11T03:06:07.825Z,58.76
2018-09-11T03:08:46.787Z,59.20
2018-09-11T03:11:23.359Z,59.31
2018-09-11T03:14:00.216Z,59.04
2018-09-11T03:16:35.449Z,58.78
2018-09-11T03:19:12.724Z,59.42
2018-09-11T03:21:45.085Z,59.28
2018-09-11T03:24:21.210Z,59.53
2018-09-11T03:26:55.197Z,60.21
2018-09-11T03:29:31.214Z,60.22
2018-09-11T03:32:10.960Z,60.05
2018-09-11T03:34:48.991Z,60.27
2018-09-11T03:37:25.061Z,59.73
2018-09-11T03:39:59.509Z,59.76
2018-09-11T03:42:38.724Z,59.64
2018-09-11T03:45:10.394Z,60.16
2018-09-11T03:47:44.831Z,60.36
2018-09-11T03:50:17.898Z,59.88
2018-09-11T03:52:54.980Z,60.04
2018-09-11T03:55:33.974Z,59.51
2018-09-11T03:58:06.938Z,59.53
2018-09-11T04:00:41.128Z,59.93
2018-09-11T04:03:25.153Z,60.14
2018-09-11T04:06:17.136Z,59.78
2018-09-11T04:09:04.953Z,60.06
2018-09-11T04:11:52.198Z,60.20
2018-09-11T04:14:51.708Z,60.35
2018-09-11T04:17:48.751Z,60.00
2018-09-11T04:20:31.046Z,60.47
2018-09-11T04:23:15.609Z,60.38
2018-09-11T04:25:57.712Z,60.43
2018-09-11T04:28:49.444Z,60.47
2018-09-11T04:31:43.405Z,61.13
2018-09-11T04:34:42.090Z,60.93
2018-09-11T04:37:32.304Z,60.73
2018-09-11T04:40:25.364Z,61.35
2018-09-11T04:43:22.641Z,61.39
2018-09-11T04:46:10.976Z,61.64
2018-09-11T04:48:53.361Z,61.12
2018-09-11T04:54:29.354Z,61.91
2018-09-11T04:57:18.616Z,61.51
2018-09-11T05:00:06.012Z,61.60
2018-09-11T05:02:57.654Z,62.19
2018-09-11T05:05:47.854Z,62.07
2018-09-11T05:08:42.240Z,61.97
2018-09-11T05:14:34.688Z,62.50
2018-09-11T05:17:19.657Z,61.20
2018-09-11T05:20:17.180Z,61.84
2018-09-11T05:23:10.215Z,61.74
2018-09-11T05:33:54.544Z,62.86
2018-09-11T05:39:28.293Z,62.25
2018-09-11T05:52:10.063Z,61.41
2018-09-11T05:54:57.945Z,61.36
2018-09-11T06:03:45.161Z,61.40
2018-09-11T06:06:28.876Z,61.43
2018-09-11T06:09:09.937Z,61.41
2018-09-11T06:11:46.748Z,60.67
2018-09-11T06:14:23.387Z,60.66
2018-09-11T06:17:00.920Z,60.80
2018-09-11T06:19:43.937Z,61.46
2018-09-11T06:22:21.957Z,61.41
2018-09-11T06:24:56.994Z,61.08
2018-09-11T06:27:34.565Z,61.12
2018-09-11T06:30:17.847Z,60.38
2018-09-11T06:32:55.844Z,61.23
2018-09-11T06:35:34.940Z,61.09
2018-09-11T06:38:08.199Z,60.36
2018-09-11T06:40:41.692Z,60.44
2018-09-11T06:43:19.039Z,60.65
2018-09-11T06:45:55.762Z,60.85
2018-09-11T06:48:36.535Z,61.10
2018-09-11T06:51:13.467Z,61.05
2018-09-11T06:53:54.571Z,60.91
2018-09-11T06:57:50.736Z,60.58
2018-09-11T07:00:29.556Z,60.47
2018-09-11T07:03:40.406Z,60.19
2018-09-11T07:06:20.806Z,60.83
2018-09-11T07:08:59.635Z,60.50
2018-09-11T07:11:40.975Z,60.82
2018-09-11T07:14:25.184Z,61.35
2018-09-11T07:17:02.912Z,60.38
2018-09-11T07:19:48.243Z,60.78
2018-09-11T07:22:27.655Z,61.05
2018-09-11T07:25:04.364Z,60.80
2018-09-11T07:27:38.024Z,60.83
2018-09-11T07:30:17.447Z,59.87
2018-09-11T07:32:51.730Z,60.18
2018-09-11T07:35:27.094Z,60.21
2018-09-11T07:44:03.837Z,60.54
2018-09-11T07:46:42.580Z,60.76
2018-09-11T07:49:31.511Z,60.84
2018-09-11T07:52:16.936Z,60.23
2018-09-11T07:55:19.315Z,60.93
2018-09-11T08:05:23.788Z,60.17
2018-09-11T08:08:00.834Z,60.39
2018-09-11T08:10:56.119Z,60.43
2018-09-11T08:13:41.912Z,59.79
2018-09-11T08:16:16.318Z,60.02
2018-09-11T08:18:49.700Z,59.70
2018-09-11T08:21:24.400Z,60.12
2018-09-11T08:23:58.903Z,59.58
2018-09-11T08:26:33.260Z,59.29
2018-09-11T08:29:13.322Z,58.66
2018-09-11T08:31:51.346Z,58.06
2018-09-11T08:34:25.144Z,57.21
2018-09-11T08:36:57.821Z,57.13
2018-09-11T08:39:29.970Z,57.13
2018-09-11T08:42:11.158Z,56.26
2018-09-11T08:44:55.186Z,55.81
2018-09-11T08:47:30.605Z,55.33
2018-09-11T08:56:29.800Z,55.19
2018-09-11T09:02:12.564Z,55.13
2018-09-11T09:04:46.942Z,54.79
2018-09-11T09:07:30.026Z,54.33
2018-09-11T09:34:10.528Z,53.38
2018-09-11T09:39:34.807Z,53.20
2018-09-11T09:42:16.441Z,52.57
2018-09-11T09:44:57.746Z,52.44
2018-09-11T09:47:40.635Z,51.29
2018-09-11T09:50:22.714Z,51.08
2018-09-11T09:52:57.607Z,51.78
2018-09-11T09:55:37.430Z,51.32
2018-09-11T10:01:02.565Z,51.32
2018-09-11T10:03:41.073Z,50.95
2018-09-11T10:06:32.474Z,50.88
2018-09-11T10:09:03.888Z,50.59
2018-09-11T10:11:40.082Z,50.84
2018-09-11T10:14:17.931Z,50.13
2018-09-11T10:16:58.010Z,50.56
2018-09-11T10:19:30.621Z,50.21
2018-09-11T10:22:06.126Z,49.54
2018-09-11T10:24:45.190Z,48.98
2018-09-11T10:27:20.233Z,49.12
2018-09-11T10:30:06.868Z,49.73
2018-09-11T10:32:41.149Z,49.22
2018-09-11T10:35:17.074Z,49.35
2018-09-11T10:37:46.858Z,49.71
2018-09-11T10:40:18.199Z,49.13
2018-09-11T10:45:35.262Z,49.15
2018-09-11T10:55:11.222Z,48.29
2018-09-11T11:00:31.223Z,48.20
2018-09-11T11:03:11.039Z,48.32
2018-09-11T11:05:44.419Z,48.46
2018-09-11T11:08:16.638Z,48.19
2018-09-11T11:10:51.111Z,48.41
2018-09-11T11:13:25.187Z,48.64
2018-09-11T11:16:00.223Z,48.35
2018-09-11T11:21:32.865Z,48.10
2018-09-11T11:24:18.189Z,48.50
2018-09-11T11:26:59.848Z,48.18
2018-09-11T11:33:11.823Z,48.91
2018-09-11T11:36:15.557Z,48.69
2018-09-11T11:42:09.505Z,48.25
2018-09-11T11:44:54.693Z,48.80
2018-09-11T11:47:37.556Z,48.29
2018-09-11T11:50:23.829Z,48.98
2018-09-11T12:01:54.431Z,48.52
2018-09-11T12:04:39.451Z,48.65
2018-09-11T12:07:25.853Z,49.27
2018-09-11T12:10:09.096Z,49.39
2018-09-11T12:16:01.116Z,48.63
2018-09-11T12:22:28.421Z,49.46
2018-09-11T12:25:10.384Z,49.54
2018-09-11T12:28:01.512Z,49.39
2018-09-11T12:30:49.229Z,49.55
2018-09-11T12:36:26.624Z,49.79
2018-09-11T12:59:02.247Z,50.23
2018-09-11T13:06:36.906Z,50.75
2018-09-11T13:09:27.014Z,50.56
2018-09-11T13:15:36.519Z,51.34
2018-09-11T13:24:20.299Z,51.13
2018-09-11T13:26:59.050Z,52.01
2018-09-11T13:29:32.517Z,51.99
2018-09-11T13:39:20.193Z,52.08
2018-09-11T13:42:12.579Z,52.14
2018-09-11T13:45:07.546Z,51.66
2018-09-11T13:47:38.103Z,51.63
2018-09-11T13:50:28.367Z,51.72
2018-09-11T13:53:06.987Z,52.07
2018-09-11T13:55:45.976Z,52.25
2018-09-11T13:58:28.971Z,51.81
2018-09-11T14:01:13.986Z,51.31
2018-09-11T14:07:22.264Z,51.72
2018-09-11T14:26:54.073Z,52.65
2018-09-11T14:30:02.231Z,53.16
2018-09-11T14:33:17.504Z,53.50
2018-09-11T14:36:14.318Z,53.39
2018-09-11T14:45:40.377Z,54.97
2018-09-11T14:49:39.700Z,55.15
2018-09-11T14:52:34.645Z,55.03
2018-09-11T14:55:42.921Z,55.46
2018-09-11T14:58:33.893Z,55.50
2018-09-11T15:01:35.574Z,55.42
2018-09-11T15:07:38.312Z,55.50
2018-09-11T15:10:26.330Z,55.54
2018-09-11T15:16:23.386Z,55.47
2018-09-11T15:19:18.802Z,55.58
2018-09-11T15:22:21.717Z,56.36
2018-09-11T15:25:20.667Z,56.21
2018-09-11T15:28:13.055Z,56.56
2018-09-11T15:36:57.216Z,57.13
2018-09-11T15:46:55.230Z,56.71
2018-09-11T15:50:05.209Z,56.84
2018-09-11T15:53:06.809Z,56.47
2018-09-11T16:01:36.535Z,57.56
2018-09-11T16:09:46.635Z,57.35
2018-09-11T16:12:23.818Z,57.87
2018-09-11T16:38:50.957Z,58.58
2018-09-11T16:41:19.658Z,59.16
2018-09-11T16:43:48.205Z,58.92
2018-09-11T16:46:16.677Z,59.20
2018-09-11T16:48:45.250Z,59.48
2018-09-11T16:51:13.887Z,59.54
2018-09-11T16:53:44.833Z,59.38
2018-09-11T16:56:14.378Z,58.94
2018-09-11T16:58:43.296Z,59.67
2018-09-11T17:01:17.357Z,59.76
2018-09-11T17:03:49.936Z,60.12
2018-09-11T17:06:19.086Z,60.04
2018-09-11T17:08:48.281Z,60.30
2018-09-11T17:11:17.740Z,60.05
2018-09-11T17:13:48.019Z,60.06
2018-09-11T17:16:17.389Z,60.22
2018-09-11T17:18:46.694Z,60.18
2018-09-11T17:21:19.420Z,60.34
2018-09-11T17:23:49.000Z,61.43
2018-09-11T17:26:18.507Z,60.76
2018-09-11T17:28:47.645Z,61.41
2018-09-11T17:31:16.739Z,61.17
2018-09-11T17:33:45.147Z,61.41
2018-09-11T17:36:15.081Z,61.22
2018-09-11T17:38:44.758Z,61.97
2018-09-11T17:41:13.613Z,61.13
2018-09-11T17:43:42.323Z,61.49
2018-09-11T17:46:11.052Z,61.42
2018-09-11T17:48:39.760Z,61.80
2018-09-11T17:51:08.345Z,61.74
2018-09-11T17:53:36.911Z,61.65
2018-09-11T17:56:05.558Z,61.88
2018-09-11T17:58:34.125Z,62.17
2018-09-11T18:01:02.924Z,62.45
2018-09-11T18:03:31.650Z,62.78
2018-09-11T18:06:00.068Z,62.79
2018-09-11T18:08:28.700Z,62.51
2018-09-11T18:10:57.238Z,62.78
2018-09-11T18:13:25.800Z,63.29
2018-09-11T18:15:54.476Z,63.35
2018-09-11T18:18:23.425Z,63.71
2018-09-11T18:20:52.509Z,63.47
2018-09-11T18:23:21.169Z,63.80
2018-09-11T18:25:49.664Z,64.11
2018-09-11T18:28:18.334Z,64.99
2018-09-11T18:30:46.947Z,65.19
2018-09-11T18:33:15.538Z,65.49
2018-09-11T18:35:44.336Z,65.09
2018-09-11T18:38:13.964Z,65.06
2018-09-11T18:40:42.697Z,65.63
2018-09-11T18:43:11.098Z,66.28
2018-09-11T18:45:46.103Z,65.58
2018-09-11T18:48:15.403Z,65.89
2018-09-11T18:50:44.649Z,65.32
2018-09-11T18:53:13.721Z,65.81
2018-09-11T18:55:42.916Z,65.84
2018-09-11T18:58:12.380Z,65.65
2018-09-11T19:00:41.010Z,65.53
2018-09-11T19:03:09.912Z,65.48
2018-09-11T19:05:38.637Z,65.10
2018-09-11T19:08:08.084Z,64.99
2018-09-11T19:10:36.788Z,65.20
2018-09-11T19:13:06.274Z,65.23
2018-09-11T19:15:35.259Z,65.32
2018-09-11T19:18:04.015Z,65.13
2018-09-11T19:20:34.525Z,65.52
2018-09-11T19:23:03.875Z,64.40
2018-09-11T19:25:32.597Z,64.06
2018-09-11T19:28:01.973Z,64.25
2018-09-11T19:30:30.671Z,64.29
2018-09-11T19:32:59.280Z,63.95
2018-09-11T19:35:28.270Z,63.49
2018-09-11T19:37:58.267Z,64.02
2018-09-11T19:40:27.428Z,63.90
2018-09-11T19:42:56.633Z,63.28
2018-09-11T19:45:25.468Z,63.81
2018-09-11T19:48:02.801Z,62.77
2018-09-11T19:50:31.469Z,63.02
2018-09-11T19:53:00.334Z,62.94
2018-09-11T19:55:29.145Z,62.50
2018-09-11T19:57:57.900Z,62.18
2018-09-11T20:00:26.843Z,62.33
2018-09-11T20:02:56.493Z,62.86
2018-09-11T20:05:25.369Z,63.09
2018-09-11T20:07:54.469Z,62.15
2018-09-11T20:10:23.198Z,62.13
2018-09-11T20:12:53.505Z,61.86
2018-09-11T20:15:22.357Z,62.24
2018-09-11T20:17:51.001Z,62.20
2018-09-11T20:20:20.206Z,62.55
2018-09-11T20:22:49.249Z,61.93
2018-09-11T20:25:18.649Z,62.42
2018-09-11T20:27:47.933Z,62.01
2018-09-11T20:30:16.583Z,62.08
2018-09-11T20:32:45.268Z,62.39
2018-09-11T20:35:14.359Z,63.14
2018-09-11T20:37:43.134Z,63.07
2018-09-11T20:40:12.180Z,63.50
2018-09-11T20:42:41.366Z,63.80
2018-09-11T20:45:10.224Z,64.05
2018-09-11T20:47:39.025Z,64.11
2018-09-11T20:50:08.285Z,63.96
2018-09-11T20:52:37.271Z,64.07
2018-09-11T20:55:06.548Z,63.56
2018-09-11T20:57:35.945Z,63.19
2018-09-11T21:00:05.436Z,62.83
2018-09-11T21:02:34.463Z,63.39
2018-09-11T21:05:03.280Z,63.04
2018-09-11T21:07:31.751Z,63.39
2018-09-11T21:10:00.582Z,63.45
2018-09-11T21:12:29.052Z,63.23
2018-09-11T21:14:58.847Z,63.17
2018-09-11T21:17:27.328Z,63.69
2018-09-11T21:19:56.018Z,63.71
2018-09-11T21:22:24.707Z,63.69
2018-09-11T21:24:53.136Z,63.07
2018-09-11T21:27:22.651Z,63.79
2018-09-11T21:29:51.040Z,63.27
2018-09-11T21:32:19.965Z,63.29
2018-09-11T21:34:48.419Z,63.54
2018-09-11T21:37:17.314Z,63.27
2018-09-11T21:39:45.685Z,63.03
2018-09-11T21:42:14.960Z,63.02
2018-09-11T21:44:44.636Z,63.07
2018-09-11T21:47:13.195Z,63.09
2018-09-11T21:49:41.739Z,63.02
2018-09-11T21:52:10.842Z,62.57
2018-09-11T21:54:39.556Z,63.26
2018-09-11T21:57:08.505Z,63.37
2018-09-11T21:59:36.894Z,63.34
2018-09-11T22:02:05.302Z,63.28
2018-09-11T22:04:33.748Z,62.60
2018-09-11T22:07:02.558Z,63.48
2018-09-11T22:09:31.311Z,62.90
2018-09-11T22:12:00.522Z,63.40
2018-09-11T22:14:29.159Z,63.33
2018-09-11T22:16:57.728Z,62.64
2018-09-11T22:19:26.248Z,62.99
2018-09-11T22:21:54.715Z,63.18
2018-09-11T22:24:23.498Z,63.25
2018-09-11T22:26:52.328Z,63.19
2018-09-11T22:29:21.102Z,63.31
2018-09-11T22:31:49.716Z,63.38
2018-09-11T22:34:18.197Z,62.86
2018-09-11T22:36:46.810Z,63.44
2018-09-11T22:39:15.942Z,63.63
2018-09-11T22:41:44.421Z,62.98
2018-09-11T22:44:13.151Z,63.38
2018-09-11T22:46:41.592Z,63.28
2018-09-11T22:49:11.801Z,62.97
2018-09-11T22:51:40.210Z,63.41
2018-09-11T22:54:08.906Z,62.94
2018-09-11T22:56:37.363Z,63.83
2018-09-11T22:59:05.867Z,63.13
2018-09-11T23:01:34.367Z,63.10
2018-09-11T23:04:03.447Z,63.69
2018-09-11T23:06:31.939Z,63.57
2018-09-11T23:09:00.497Z,63.66
2018-09-11T23:11:28.814Z,63.24
2018-09-11T23:13:57.343Z,63.36
2018-09-11T23:16:26.020Z,63.67
2018-09-11T23:18:54.476Z,63.31
2018-09-11T23:21:22.874Z,64.04
2018-09-11T23:23:51.303Z,63.80
2018-09-11T23:26:19.793Z,63.96
2018-09-11T23:28:48.204Z,64.04
2018-09-11T23:31:16.594Z,64.76
2018-09-11T23:33:45.243Z,64.20
2018-09-11T23:36:13.968Z,64.11
2018-09-11T23:38:42.504Z,64.77
2018-09-11T23:41:11.398Z,65.17
2018-09-11T23:43:39.958Z,64.95
2018-09-11T23:46:14.976Z,65.09
2018-09-11T23:48:43.393Z,64.76
2018-09-11T23:51:12.345Z,65.11
2018-09-11T23:53:40.979Z,65.64
2018-09-11T23:56:09.375Z,66.46
2018-09-11T23:58:38.419Z,65.98
